createdAt,value
2023-02-28T00:01:05.106Z,1.90
2023-02-28T00:03:31.750Z,1.90
2023-02-28T00:05:58.350Z,2.00
2023-02-28T00:08:24.963Z,2.00
2023-02-28T00:10:51.716Z,1.90
2023-02-28T00:13:18.268Z,2.00
2023-02-28T00:15:46.271Z,1.80
2023-02-28T00:18:12.907Z,0.20
2023-02-28T00:20:39.658Z,1.90
2023-02-28T00:23:06.229Z,2.00
2023-02-28T00:25:32.789Z,2.00
2023-02-28T00:27:59.353Z,2.10
2023-02-28T00:30:26.040Z,2.10
2023-02-28T00:32:52.672Z,2.10
2023-02-28T00:35:19.480Z,2.10
2023-02-28T00:37:46.079Z,2.20
2023-02-28T00:40:13.434Z,2.20
2023-02-28T00:42:40.578Z,2.20
2023-02-28T00:45:08.943Z,2.30
2023-02-28T00:47:35.933Z,2.30
2023-02-28T00:50:03.683Z,2.30
2023-02-28T00:52:30.499Z,2.30
2023-02-28T00:54:57.136Z,2.30
2023-02-28T00:57:24.125Z,2.20
2023-02-28T00:59:50.701Z,2.70
2023-02-28T01:02:17.482Z,2.30
2023-02-28T01:04:44.114Z,2.30
2023-02-28T01:07:10.717Z,2.30
2023-02-28T01:09:37.392Z,2.30
2023-02-28T01:12:04.292Z,2.20
2023-02-28T01:14:30.907Z,2.20
2023-02-28T01:16:57.487Z,2.10
2023-02-28T01:19:26.885Z,2.10
2023-02-28T01:21:53.469Z,2.00
2023-02-28T01:24:20.444Z,2.00
2023-02-28T01:26:47.027Z,2.00
2023-02-28T01:29:13.587Z,1.90
2023-02-28T01:31:40.427Z,1.80
2023-02-28T01:34:07.038Z,1.70
2023-02-28T01:36:33.626Z,1.60
2023-02-28T01:39:00.215Z,1.50
2023-02-28T01:41:30.767Z,1.40
2023-02-28T01:44:04.135Z,1.30
2023-02-28T01:46:35.075Z,1.40
2023-02-28T01:49:14.070Z,1.50
2023-02-28T01:51:51.839Z,1.20
2023-02-28T01:54:24.935Z,1.50
2023-02-28T01:56:57.298Z,1.40
2023-02-28T01:59:31.188Z,1.40
2023-02-28T02:01:58.099Z,1.30
2023-02-28T02:04:28.272Z,1.30
2023-02-28T02:06:55.602Z,1.30
2023-02-28T02:09:22.230Z,1.30
2023-02-28T02:11:48.901Z,1.20
2023-02-28T02:14:35.226Z,1.20
2023-02-28T02:17:23.423Z,1.30
2023-02-28T02:20:17.241Z,1.30
2023-02-28T02:23:27.709Z,1.20
2023-02-28T02:25:59.336Z,1.00
2023-02-28T02:28:40.286Z,1.00
2023-02-28T02:31:34.411Z,1.00
2023-02-28T02:34:22.305Z,0.90
2023-02-28T02:37:02.122Z,0.70
2023-02-28T02:39:45.534Z,0.70
2023-02-28T02:42:37.830Z,0.60
2023-02-28T02:45:10.517Z,0.60
2023-02-28T02:47:39.004Z,0.60
2023-02-28T02:50:11.929Z,0.50
2023-02-28T02:52:46.500Z,0.40
2023-02-28T02:55:14.323Z,0.30
2023-02-28T02:57:55.320Z,0.50
2023-02-28T03:00:27.237Z,0.40
2023-02-28T03:02:57.087Z,0.40
2023-02-28T03:05:33.554Z,0.20
2023-02-28T03:08:00.115Z,0.10
2023-02-28T03:10:48.932Z,0.10
2023-02-28T03:13:45.798Z,0.00
2023-02-28T03:16:35.708Z,0.00
2023-02-28T03:19:19.135Z,-0.10
2023-02-28T03:22:06.847Z,-0.20
2023-02-28T03:24:43.021Z,-0.20
2023-02-28T03:27:25.749Z,-1.00
2023-02-28T03:30:33.337Z,-0.30
2023-02-28T03:33:07.959Z,0.60
2023-02-28T03:35:44.426Z,-0.30
2023-02-28T03:38:23.179Z,-0.40
2023-02-28T03:40:54.548Z,-0.40
2023-02-28T03:43:27.967Z,-0.50
2023-02-28T03:45:55.752Z,-0.50
2023-02-28T03:48:33.036Z,-0.80
2023-02-28T03:51:01.023Z,-0.60
2023-02-28T03:53:35.808Z,-0.60
2023-02-28T03:56:23.307Z,-0.60
2023-02-28T03:59:18.118Z,-0.70
2023-02-28T04:01:49.726Z,-0.70
2023-02-28T04:04:17.604Z,-0.70
2023-02-28T04:06:44.937Z,-0.70
2023-02-28T04:09:14.758Z,-0.80
2023-02-28T04:11:56.633Z,-1.10
2023-02-28T04:14:23.903Z,-0.80
2023-02-28T04:16:51.925Z,-0.70
2023-02-28T04:19:19.176Z,-0.70
2023-02-28T04:21:49.188Z,-0.80
2023-02-28T04:24:18.469Z,-0.90
2023-02-28T04:26:47.855Z,-0.80
2023-02-28T04:29:23.772Z,-0.90
2023-02-28T04:31:50.739Z,-0.90
2023-02-28T04:34:17.798Z,-0.90
2023-02-28T04:36:44.405Z,-0.80
2023-02-28T04:39:10.970Z,-0.80
2023-02-28T04:41:37.569Z,-0.80
2023-02-28T04:44:04.545Z,-0.80
2023-02-28T04:46:31.781Z,-0.90
2023-02-28T04:48:59.062Z,-0.80
2023-02-28T04:51:25.913Z,-0.80
2023-02-28T04:53:53.477Z,-0.70
2023-02-28T04:56:20.603Z,-0.70
2023-02-28T04:58:47.521Z,-0.80
2023-02-28T05:01:24.878Z,-0.90
2023-02-28T05:03:52.908Z,-0.80
2023-02-28T05:06:21.182Z,-0.80
2023-02-28T05:08:48.614Z,-0.90
2023-02-28T05:11:19.136Z,-0.90
2023-02-28T05:13:46.486Z,-0.90
2023-02-28T05:16:13.101Z,-1.20
2023-02-28T05:18:40.666Z,-1.00
2023-02-28T05:21:24.651Z,-1.00
2023-02-28T05:23:51.606Z,-1.10
2023-02-28T05:26:18.184Z,-1.20
2023-02-28T05:28:44.776Z,-1.20
2023-02-28T05:31:14.806Z,-1.30
2023-02-28T05:33:41.788Z,-1.30
2023-02-28T05:36:08.714Z,-1.40
2023-02-28T05:38:37.766Z,-1.40
2023-02-28T05:41:09.451Z,-1.40
2023-02-28T05:43:38.009Z,-1.50
2023-02-28T05:46:09.275Z,-1.50
2023-02-28T05:48:37.488Z,-1.60
2023-02-28T05:51:05.246Z,-1.90
2023-02-28T05:53:35.790Z,-1.50
2023-02-28T05:56:02.414Z,-1.50
2023-02-28T05:58:31.781Z,-1.50
2023-02-28T06:01:00.016Z,-1.50
2023-02-28T06:03:27.170Z,-1.50
2023-02-28T06:05:53.936Z,-1.50
2023-02-28T06:08:20.646Z,-1.40
2023-02-28T06:10:47.295Z,-1.50
2023-02-28T06:13:13.975Z,-1.40
2023-02-28T06:15:40.747Z,-1.90
2023-02-28T06:18:07.430Z,-1.30
2023-02-28T06:20:34.353Z,-1.30
2023-02-28T06:23:01.082Z,-1.20
2023-02-28T06:25:28.825Z,-1.20
2023-02-28T06:27:56.222Z,-1.20
2023-02-28T06:30:27.812Z,-1.20
2023-02-28T06:32:55.419Z,-1.10
2023-02-28T06:35:23.457Z,-1.10
2023-02-28T06:37:50.191Z,-1.00
2023-02-28T06:40:17.290Z,-0.80
2023-02-28T06:42:44.054Z,-0.50
2023-02-28T06:45:11.925Z,-0.30
2023-02-28T06:47:40.556Z,-0.20
2023-02-28T06:50:09.096Z,-0.10
2023-02-28T06:52:38.208Z,0.00
2023-02-28T06:55:08.760Z,0.00
2023-02-28T06:57:36.595Z,0.30
2023-02-28T07:00:08.566Z,0.70
2023-02-28T07:02:36.575Z,1.30
2023-02-28T07:07:47.818Z,1.70
2023-02-28T07:10:20.005Z,1.50
2023-02-28T07:12:46.999Z,1.30
2023-02-28T07:15:13.627Z,1.10
2023-02-28T07:17:40.228Z,1.90
2023-02-28T07:20:07.603Z,0.70
2023-02-28T07:22:34.156Z,0.50
2023-02-28T07:25:01.037Z,0.60
2023-02-28T07:27:27.750Z,0.50
2023-02-28T07:29:55.668Z,0.50
2023-02-28T07:32:22.280Z,0.40
2023-02-28T07:34:49.464Z,0.40
2023-02-28T07:37:16.165Z,0.50
2023-02-28T07:39:43.331Z,0.60
2023-02-28T07:42:12.689Z,0.60
2023-02-28T07:44:41.488Z,0.70
2023-02-28T07:47:09.469Z,0.90
2023-02-28T07:49:38.909Z,1.00
2023-02-28T07:52:07.545Z,1.00
2023-02-28T07:54:34.824Z,1.10
2023-02-28T07:57:01.434Z,1.20
2023-02-28T07:59:29.088Z,1.40
2023-02-28T08:01:58.743Z,1.60
2023-02-28T08:04:25.756Z,1.70
2023-02-28T08:06:53.990Z,1.70
2023-02-28T08:09:21.092Z,1.90
2023-02-28T08:11:47.644Z,1.90
2023-02-28T08:14:14.704Z,2.00
2023-02-28T08:16:41.372Z,2.10
2023-02-28T08:19:08.051Z,2.20
2023-02-28T08:21:34.619Z,2.30
2023-02-28T08:24:01.302Z,2.40
2023-02-28T08:26:27.922Z,2.50
2023-02-28T08:28:56.179Z,2.60
2023-02-28T08:31:24.022Z,2.60
2023-02-28T08:33:52.783Z,2.70
2023-02-28T08:36:20.348Z,2.80
2023-02-28T08:38:46.978Z,2.90
2023-02-28T08:41:13.927Z,3.00
2023-02-28T08:43:41.275Z,3.00
2023-02-28T08:46:09.144Z,3.20
2023-02-28T08:48:38.723Z,3.30
2023-02-28T08:51:10.042Z,3.40
2023-02-28T08:53:37.877Z,3.40
2023-02-28T08:56:14.776Z,3.50
2023-02-28T08:58:41.404Z,3.60
2023-02-28T09:01:14.290Z,3.70
2023-02-28T09:03:42.701Z,3.70
2023-02-28T09:06:10.953Z,3.70
2023-02-28T09:08:38.141Z,3.80
2023-02-28T09:11:05.340Z,4.00
2023-02-28T09:13:33.287Z,4.00
2023-02-28T09:16:02.557Z,4.10
2023-02-28T09:18:30.157Z,4.00
2023-02-28T09:20:56.808Z,4.00
2023-02-28T09:23:23.386Z,4.00
2023-02-28T09:25:53.702Z,4.00
2023-02-28T09:28:21.086Z,4.10
2023-02-28T09:30:50.449Z,4.30
2023-02-28T09:33:18.655Z,4.30
2023-02-28T09:35:45.310Z,4.50
2023-02-28T09:38:12.157Z,4.50
2023-02-28T09:41:00.512Z,4.50
2023-02-28T09:43:33.113Z,4.60
2023-02-28T09:46:20.060Z,4.80
2023-02-28T09:48:49.383Z,4.90
2023-02-28T09:51:37.561Z,4.90
2023-02-28T09:54:04.552Z,5.00
2023-02-28T09:56:38.254Z,5.00
2023-02-28T09:59:13.556Z,5.10
2023-02-28T10:02:14.069Z,5.10
2023-02-28T10:04:52.749Z,5.10
2023-02-28T10:07:47.588Z,5.10
2023-02-28T10:10:31.756Z,5.10
2023-02-28T10:13:02.598Z,4.90
2023-02-28T10:15:32.906Z,4.90
2023-02-28T10:18:09.316Z,5.10
2023-02-28T10:20:41.023Z,5.10
2023-02-28T10:23:19.141Z,5.20
2023-02-28T10:25:56.065Z,5.20
2023-02-28T10:28:22.732Z,5.30
2023-02-28T10:30:52.092Z,5.20
2023-02-28T10:33:23.526Z,5.10
2023-02-28T10:35:50.777Z,5.40
2023-02-28T10:38:24.838Z,5.50
2023-02-28T10:40:52.378Z,5.50
2023-02-28T10:43:25.501Z,5.60
2023-02-28T10:46:02.807Z,5.60
2023-02-28T10:48:49.356Z,5.60
2023-02-28T10:51:19.024Z,5.70
2023-02-28T10:54:03.365Z,5.70
2023-02-28T10:56:31.586Z,5.70
2023-02-28T10:59:28.395Z,5.70
2023-02-28T11:01:55.126Z,5.70
2023-02-28T11:04:40.972Z,5.50
2023-02-28T11:07:22.230Z,5.10
2023-02-28T11:09:56.240Z,5.90
2023-02-28T11:12:52.234Z,5.70
2023-02-28T11:15:25.968Z,5.70
2023-02-28T11:18:02.382Z,5.70
2023-02-28T11:20:32.493Z,5.70
2023-02-28T11:23:01.965Z,5.70
2023-02-28T11:25:33.061Z,5.80
2023-02-28T11:28:02.950Z,5.80
2023-02-28T11:30:34.385Z,5.70
2023-02-28T11:33:02.099Z,5.80
2023-02-28T11:35:37.207Z,5.80
2023-02-28T11:38:03.852Z,5.80
2023-02-28T11:40:52.875Z,5.80
2023-02-28T11:43:37.644Z,5.90
2023-02-28T11:46:36.784Z,6.00
2023-02-28T11:49:22.932Z,6.10
2023-02-28T11:52:09.609Z,6.20
2023-02-28T11:54:48.970Z,6.20
2023-02-28T11:57:29.845Z,6.30
2023-02-28T12:00:18.707Z,6.80
2023-02-28T12:03:20.829Z,6.20
2023-02-28T12:05:58.140Z,6.20
2023-02-28T12:08:44.396Z,6.20
2023-02-28T12:11:34.078Z,6.10
2023-02-28T12:14:41.496Z,6.20
2023-02-28T12:17:28.980Z,6.20
2023-02-28T12:20:10.471Z,6.10
2023-02-28T12:22:54.269Z,6.00
2023-02-28T12:25:41.883Z,6.00
2023-02-28T12:28:12.926Z,6.00
2023-02-28T12:30:53.109Z,6.20
2023-02-28T12:33:23.615Z,6.30
2023-02-28T12:36:00.224Z,6.30
2023-02-28T12:38:37.353Z,6.40
2023-02-28T12:41:31.934Z,6.40
2023-02-28T12:44:13.398Z,6.50
2023-02-28T12:46:45.265Z,6.50
2023-02-28T12:49:22.696Z,6.50
2023-02-28T12:51:51.121Z,6.50
2023-02-28T12:54:30.098Z,6.30
2023-02-28T12:57:17.925Z,6.40
2023-02-28T12:59:53.451Z,6.40
2023-02-28T13:02:42.171Z,6.20
2023-02-28T13:05:27.369Z,6.50
2023-02-28T13:08:24.953Z,6.60
2023-02-28T13:10:55.493Z,6.60
2023-02-28T13:13:30.523Z,6.50
2023-02-28T13:16:04.186Z,6.50
2023-02-28T13:18:33.605Z,6.80
2023-02-28T13:21:02.069Z,6.70
2023-02-28T13:23:53.223Z,6.70
2023-02-28T13:26:19.899Z,6.70
2023-02-28T13:28:54.158Z,6.70
2023-02-28T13:31:21.955Z,6.70
2023-02-28T13:33:51.253Z,6.70
2023-02-28T13:36:20.655Z,6.60
2023-02-28T13:38:57.173Z,6.60
2023-02-28T13:41:30.361Z,6.60
2023-02-28T13:44:18.418Z,6.60
2023-02-28T13:46:51.663Z,6.80
2023-02-28T13:49:25.747Z,6.90
2023-02-28T13:52:07.952Z,7.00
2023-02-28T13:54:59.983Z,7.10
2023-02-28T13:57:57.281Z,7.30
2023-02-28T14:00:53.548Z,7.50
2023-02-28T14:04:06.667Z,7.50
2023-02-28T14:06:37.773Z,7.40
2023-02-28T14:09:25.806Z,6.40
2023-02-28T14:11:52.855Z,7.20
2023-02-28T14:14:37.471Z,7.00
2023-02-28T14:17:16.749Z,6.30
2023-02-28T14:19:49.763Z,6.70
2023-02-28T14:22:49.834Z,6.70
2023-02-28T14:25:44.222Z,6.60
2023-02-28T14:28:45.731Z,6.60
2023-02-28T14:31:23.960Z,6.60
2023-02-28T14:34:28.211Z,6.60
2023-02-28T14:36:55.820Z,6.60
2023-02-28T14:39:26.805Z,6.70
2023-02-28T14:41:54.334Z,6.60
2023-02-28T14:44:23.690Z,6.70
2023-02-28T14:46:58.050Z,6.60
2023-02-28T14:49:31.349Z,6.60
2023-02-28T14:52:11.672Z,6.60
2023-02-28T14:54:39.477Z,6.50
2023-02-28T14:57:06.637Z,6.40
2023-02-28T14:59:36.128Z,6.30
2023-02-28T15:02:20.197Z,6.30
2023-02-28T15:04:58.164Z,6.30
2023-02-28T15:07:29.403Z,6.30
2023-02-28T15:10:29.001Z,6.30
2023-02-28T15:13:05.921Z,6.30
2023-02-28T15:16:02.508Z,6.30
2023-02-28T15:18:44.048Z,6.30
2023-02-28T15:21:17.841Z,6.30
2023-02-28T15:23:56.403Z,6.30
2023-02-28T15:26:27.678Z,6.30
2023-02-28T15:29:03.699Z,6.20
2023-02-28T15:31:55.903Z,6.00
2023-02-28T15:34:40.648Z,6.30
2023-02-28T15:37:48.924Z,5.80
2023-02-28T15:40:18.172Z,5.70
2023-02-28T15:43:13.129Z,5.70
2023-02-28T15:45:46.672Z,5.70
2023-02-28T15:48:20.245Z,5.60
2023-02-28T15:50:56.669Z,5.50
2023-02-28T15:53:29.099Z,5.50
2023-02-28T15:55:59.868Z,5.40
2023-02-28T15:58:27.153Z,5.50
2023-02-28T16:01:09.192Z,5.40
2023-02-28T16:03:46.077Z,5.40
2023-02-28T16:06:35.371Z,5.40
2023-02-28T16:09:03.497Z,5.30
2023-02-28T16:11:31.686Z,5.30
2023-02-28T16:13:58.988Z,5.30
2023-02-28T16:16:27.478Z,5.20
2023-02-28T16:18:54.827Z,5.10
2023-02-28T16:21:22.159Z,5.00
2023-02-28T16:23:48.820Z,5.00
2023-02-28T16:26:22.176Z,4.90
2023-02-28T16:28:55.529Z,4.80
2023-02-28T16:31:22.632Z,4.70
2023-02-28T16:33:49.312Z,4.70
2023-02-28T16:36:19.042Z,4.70
2023-02-28T16:38:46.111Z,4.70
2023-02-28T16:41:25.162Z,6.50
2023-02-28T16:43:54.772Z,4.60
2023-02-28T16:46:21.868Z,4.60
2023-02-28T16:48:52.433Z,4.60
2023-02-28T16:51:19.871Z,4.50
2023-02-28T16:53:46.894Z,4.50
2023-02-28T16:56:20.708Z,4.40
2023-02-28T16:58:48.345Z,4.40
2023-02-28T17:01:16.001Z,4.30
2023-02-28T17:03:43.079Z,4.30
2023-02-28T17:06:29.062Z,4.30
2023-02-28T17:08:57.423Z,4.20
2023-02-28T17:11:24.801Z,4.10
2023-02-28T17:13:51.614Z,2.80
2023-02-28T17:16:29.856Z,4.00
2023-02-28T17:19:00.553Z,4.00
2023-02-28T17:21:28.073Z,3.90
2023-02-28T17:23:54.745Z,3.70
2023-02-28T17:26:23.177Z,3.70
2023-02-28T17:28:50.073Z,3.70
2023-02-28T17:31:16.704Z,3.60
2023-02-28T17:33:43.717Z,3.50
2023-02-28T17:36:15.239Z,3.60
2023-02-28T17:38:41.939Z,3.70
2023-02-28T17:41:13.173Z,3.70
2023-02-28T17:43:39.911Z,3.60
2023-02-28T17:46:11.387Z,3.60
2023-02-28T17:48:37.999Z,3.50
2023-02-28T17:51:04.810Z,3.40
2023-02-28T17:53:31.754Z,3.30
2023-02-28T17:55:58.331Z,3.30
2023-02-28T17:58:25.017Z,3.30
2023-02-28T18:00:54.734Z,3.10
2023-02-28T18:03:21.973Z,3.00
2023-02-28T18:05:49.130Z,2.90
2023-02-28T18:08:16.442Z,2.90
2023-02-28T18:10:46.556Z,2.80
2023-02-28T18:13:13.722Z,2.80
2023-02-28T18:15:40.772Z,2.80
2023-02-28T18:18:07.751Z,2.70
2023-02-28T18:20:35.254Z,2.70
2023-02-28T18:23:02.419Z,2.60
2023-02-28T18:25:29.857Z,2.00
2023-02-28T18:28:02.384Z,2.50
2023-02-28T18:30:37.316Z,2.50
2023-02-28T18:33:04.734Z,2.40
2023-02-28T18:35:38.360Z,2.40
2023-02-28T18:38:20.202Z,2.40
2023-02-28T18:40:59.342Z,2.40
2023-02-28T18:43:26.959Z,2.40
2023-02-28T18:45:53.890Z,2.30
2023-02-28T18:48:25.757Z,2.20
2023-02-28T18:50:52.789Z,2.10
2023-02-28T18:53:20.321Z,2.00
2023-02-28T18:55:46.984Z,1.90
2023-02-28T18:58:14.451Z,1.80
2023-02-28T19:00:41.167Z,1.70
2023-02-28T19:03:12.206Z,1.60
2023-02-28T19:05:38.860Z,1.50
2023-02-28T19:08:06.307Z,1.70
2023-02-28T19:10:33.420Z,1.50
2023-02-28T19:13:00.109Z,1.40
2023-02-28T19:15:26.869Z,1.40
2023-02-28T19:17:53.483Z,1.40
2023-02-28T19:20:20.202Z,1.50
2023-02-28T19:22:46.852Z,1.40
2023-02-28T19:25:13.462Z,1.40
2023-02-28T19:27:40.051Z,1.40
2023-02-28T19:30:07.510Z,1.80
2023-02-28T19:32:34.911Z,1.50
2023-02-28T19:35:02.649Z,1.50
2023-02-28T19:37:29.223Z,1.40
2023-02-28T19:39:56.952Z,1.40
2023-02-28T19:42:23.686Z,1.30
2023-02-28T19:44:50.282Z,1.20
2023-02-28T19:47:16.919Z,0.90
2023-02-28T19:49:43.558Z,1.10
2023-02-28T19:52:13.427Z,1.00
2023-02-28T19:54:42.267Z,1.00
2023-02-28T19:57:08.949Z,1.00
2023-02-28T19:59:39.650Z,0.90
2023-02-28T20:02:15.010Z,0.80
2023-02-28T20:04:42.038Z,0.90
2023-02-28T20:07:09.529Z,0.90
2023-02-28T20:09:39.642Z,0.90
2023-02-28T20:12:11.676Z,0.90
2023-02-28T20:14:44.697Z,0.90
2023-02-28T20:17:11.328Z,0.80
2023-02-28T20:19:38.155Z,0.90
2023-02-28T20:22:04.776Z,0.90
2023-02-28T20:24:34.625Z,0.90
2023-02-28T20:27:27.360Z,0.90
2023-02-28T20:29:56.769Z,0.90
2023-02-28T20:32:25.506Z,1.00
2023-02-28T20:34:53.433Z,1.00
2023-02-28T20:37:23.279Z,1.00
2023-02-28T20:39:53.071Z,1.00
2023-02-28T20:42:20.060Z,0.90
2023-02-28T20:44:46.687Z,0.80
2023-02-28T20:47:13.754Z,0.50
2023-02-28T20:49:40.348Z,0.60
2023-02-28T20:52:10.100Z,0.50
2023-02-28T20:54:36.930Z,0.40
2023-02-28T20:57:03.870Z,0.40
2023-02-28T20:59:33.223Z,0.30
2023-02-28T21:01:59.804Z,0.30
2023-02-28T21:04:26.434Z,-0.20
2023-02-28T21:06:53.439Z,0.30
2023-02-28T21:09:20.057Z,0.20
2023-02-28T21:11:46.716Z,0.20
2023-02-28T21:14:17.681Z,0.10
2023-02-28T21:16:44.831Z,0.10
2023-02-28T21:19:11.946Z,0.10
2023-02-28T21:21:47.016Z,0.10
2023-02-28T21:24:16.485Z,0.10
2023-02-28T21:26:44.672Z,0.10
2023-02-28T21:29:12.608Z,0.00
2023-02-28T21:31:40.080Z,0.00
2023-02-28T21:34:08.424Z,0.00
2023-02-28T21:36:40.796Z,-0.10
2023-02-28T21:39:20.099Z,-0.10
2023-02-28T21:41:47.676Z,-0.10
2023-02-28T21:44:18.453Z,-0.10
2023-02-28T21:46:47.133Z,-0.20
2023-02-28T21:49:14.471Z,-0.20
2023-02-28T21:51:42.690Z,-0.20
2023-02-28T21:54:10.785Z,-0.20
2023-02-28T21:56:37.890Z,-0.10
2023-02-28T21:59:06.884Z,0.00
2023-02-28T22:01:36.427Z,-0.10
2023-02-28T22:04:05.525Z,-0.10
2023-02-28T22:06:35.353Z,-0.10
2023-02-28T22:09:05.882Z,-0.40
2023-02-28T22:11:33.490Z,0.00
2023-02-28T22:14:00.122Z,-0.10
2023-02-28T22:16:33.148Z,-0.10
2023-02-28T22:19:06.381Z,-0.20
2023-02-28T22:21:34.603Z,-0.30
2023-02-28T22:24:02.172Z,-0.40
2023-02-28T22:26:29.198Z,-0.40
2023-02-28T22:28:56.339Z,-0.40
2023-02-28T22:31:29.327Z,-0.40
2023-02-28T22:33:58.420Z,-0.40
2023-02-28T22:36:25.661Z,-0.50
2023-02-28T22:38:53.438Z,-0.50
2023-02-28T22:41:22.340Z,-0.50
2023-02-28T22:43:54.891Z,-0.60
2023-02-28T22:46:22.736Z,-0.60
2023-02-28T22:48:50.280Z,-0.70
2023-02-28T22:51:19.623Z,-0.70
2023-02-28T22:53:48.631Z,-0.70
2023-02-28T22:56:17.076Z,-0.60
2023-02-28T22:58:45.442Z,-0.80
2023-02-28T23:01:14.996Z,-0.70
2023-02-28T23:03:42.952Z,-0.70
2023-02-28T23:06:21.484Z,-0.70
2023-02-28T23:08:48.737Z,-0.80
2023-02-28T23:11:21.448Z,-0.80
2023-02-28T23:13:58.417Z,-0.70
2023-02-28T23:16:40.473Z,-0.70
2023-02-28T23:19:29.637Z,-0.70
2023-02-28T23:22:01.124Z,-0.80
2023-02-28T23:24:30.056Z,-0.80
2023-02-28T23:27:00.236Z,-0.90
2023-02-28T23:29:28.207Z,-0.90
2023-02-28T23:31:55.364Z,-0.90
2023-02-28T23:34:26.434Z,-0.90
2023-02-28T23:36:54.636Z,-0.90
2023-02-28T23:39:22.362Z,-0.90
2023-02-28T23:41:48.960Z,-0.90
2023-02-28T23:44:18.871Z,-0.70
2023-02-28T23:46:50.880Z,-1.00
2023-02-28T23:49:20.900Z,-1.00
2023-02-28T23:51:51.724Z,-1.00
2023-02-28T23:54:19.003Z,-0.90
2023-02-28T23:56:46.459Z,-1.10
2023-02-28T23:59:13.183Z,-1.00
